sensor_id;sensor_type;location;lat;lon;timestamp;pressure;altitude;pressure_sealevel;temperature;humidity
67501;BME280;54349;52.528;19.760;2024-02-23T00:01:49;98200.89;;;22.48;34.57
67501;BME280;54349;52.528;19.760;2024-02-23T00:04:18;98200.09;;;22.48;34.76
67501;BME280;54349;52.528;19.760;2024-02-23T00:06:47;98196.19;;;22.47;34.69
67501;BME280;54349;52.528;19.760;2024-02-23T00:09:17;98196.95;;;22.46;34.61
67501;BME280;54349;52.528;19.760;2024-02-23T00:11:45;98193.84;;;22.45;34.72
67501;BME280;54349;52.528;19.760;2024-02-23T00:14:15;98195.24;;;22.45;34.81
67501;BME280;54349;52.528;19.760;2024-02-23T00:16:48;98191.81;;;22.44;34.63
67501;BME280;54349;52.528;19.760;2024-02-23T00:19:16;98194.01;;;22.43;34.67
67501;BME280;54349;52.528;19.760;2024-02-23T00:21:48;98187.61;;;22.43;34.62
67501;BME280;54349;52.528;19.760;2024-02-23T00:24:18;98188.36;;;22.42;34.68
67501;BME280;54349;52.528;19.760;2024-02-23T00:26:50;98185.90;;;22.41;34.62
67501;BME280;54349;52.528;19.760;2024-02-23T00:29:19;98186.50;;;22.40;34.62
67501;BME280;54349;52.528;19.760;2024-02-23T00:31:49;98184.89;;;22.39;34.73
67501;BME280;54349;52.528;19.760;2024-02-23T00:34:17;98178.48;;;22.39;34.59
67501;BME280;54349;52.528;19.760;2024-02-23T00:36:45;98172.64;;;22.39;34.64
67501;BME280;54349;52.528;19.760;2024-02-23T00:39:15;98171.02;;;22.38;34.75
67501;BME280;54349;52.528;19.760;2024-02-23T00:41:43;98175.84;;;22.37;34.62
67501;BME280;54349;52.528;19.760;2024-02-23T00:44:13;98172.65;;;22.36;34.69
67501;BME280;54349;52.528;19.760;2024-02-23T00:46:41;98175.09;;;22.36;34.67
67501;BME280;54349;52.528;19.760;2024-02-23T00:49:12;98177.44;;;22.35;34.65
67501;BME280;54349;52.528;19.760;2024-02-23T00:51:40;98180.42;;;22.35;34.57
67501;BME280;54349;52.528;19.760;2024-02-23T00:54:11;98177.73;;;22.35;34.68
67501;BME280;54349;52.528;19.760;2024-02-23T00:56:39;98174.73;;;22.35;34.68
67501;BME280;54349;52.528;19.760;2024-02-23T00:59:20;98169.29;;;22.35;34.61
67501;BME280;54349;52.528;19.760;2024-02-23T01:01:49;98165.88;;;22.34;34.71
67501;BME280;54349;52.528;19.760;2024-02-23T01:04:21;98160.58;;;22.34;34.70
67501;BME280;54349;52.528;19.760;2024-02-23T01:06:52;98162.48;;;22.34;34.69
67501;BME280;54349;52.528;19.760;2024-02-23T01:09:23;98154.50;;;22.34;34.61
67501;BME280;54349;52.528;19.760;2024-02-23T01:11:51;98150.63;;;22.34;34.62
67501;BME280;54349;52.528;19.760;2024-02-23T01:14:22;98150.73;;;22.34;34.63
67501;BME280;54349;52.528;19.760;2024-02-23T01:16:51;98153.80;;;22.35;34.64
67501;BME280;54349;52.528;19.760;2024-02-23T01:19:21;98147.58;;;22.31;34.63
67501;BME280;54349;52.528;19.760;2024-02-23T01:21:49;98148.36;;;22.32;34.54
67501;BME280;54349;52.528;19.760;2024-02-23T01:24:28;98144.70;;;22.31;34.57
67501;BME280;54349;52.528;19.760;2024-02-23T01:27:02;98145.70;;;22.31;34.59
67501;BME280;54349;52.528;19.760;2024-02-23T01:29:31;98142.38;;;22.30;34.56
67501;BME280;54349;52.528;19.760;2024-02-23T01:32:06;98141.16;;;22.29;34.55
67501;BME280;54349;52.528;19.760;2024-02-23T01:34:40;98139.16;;;22.28;34.70
67501;BME280;54349;52.528;19.760;2024-02-23T01:37:14;98141.96;;;22.27;34.64
67501;BME280;54349;52.528;19.760;2024-02-23T01:39:46;98144.16;;;22.26;34.63
67501;BME280;54349;52.528;19.760;2024-02-23T01:42:15;98141.66;;;22.25;34.59
67501;BME280;54349;52.528;19.760;2024-02-23T01:44:45;98143.00;;;22.25;34.64
67501;BME280;54349;52.528;19.760;2024-02-23T01:47:13;98144.56;;;22.24;34.63
67501;BME280;54349;52.528;19.760;2024-02-23T01:49:45;98141.45;;;22.23;34.62
67501;BME280;54349;52.528;19.760;2024-02-23T01:52:19;98141.81;;;22.22;34.64
67501;BME280;54349;52.528;19.760;2024-02-23T01:54:53;98141.15;;;22.21;34.64
67501;BME280;54349;52.528;19.760;2024-02-23T01:57:23;98143.04;;;22.21;34.66
67501;BME280;54349;52.528;19.760;2024-02-23T02:00:17;98141.90;;;22.20;34.70
67501;BME280;54349;52.528;19.760;2024-02-23T02:02:57;98139.35;;;22.19;34.72
67501;BME280;54349;52.528;19.760;2024-02-23T02:05:28;98135.02;;;22.19;34.61
67501;BME280;54349;52.528;19.760;2024-02-23T02:08:00;98133.73;;;22.19;34.69
67501;BME280;54349;52.528;19.760;2024-02-23T02:10:29;98137.45;;;22.19;34.56
67501;BME280;54349;52.528;19.760;2024-02-23T02:13:04;98131.88;;;22.17;34.58
67501;BME280;54349;52.528;19.760;2024-02-23T02:15:37;98134.56;;;22.17;34.71
67501;BME280;54349;52.528;19.760;2024-02-23T02:18:06;98130.44;;;22.17;34.66
67501;BME280;54349;52.528;19.760;2024-02-23T02:20:47;98129.70;;;22.16;34.62
67501;BME280;54349;52.528;19.760;2024-02-23T02:23:20;98129.54;;;22.16;34.68
67501;BME280;54349;52.528;19.760;2024-02-23T02:25:56;98129.59;;;22.15;34.68
67501;BME280;54349;52.528;19.760;2024-02-23T02:28:29;98132.20;;;22.16;34.68
67501;BME280;54349;52.528;19.760;2024-02-23T02:30:58;98131.45;;;22.14;34.64
67501;BME280;54349;52.528;19.760;2024-02-23T02:33:34;98131.19;;;22.13;34.66
67501;BME280;54349;52.528;19.760;2024-02-23T02:36:03;98134.13;;;22.14;34.68
67501;BME280;54349;52.528;19.760;2024-02-23T02:38:36;98133.73;;;22.13;34.66
67501;BME280;54349;52.528;19.760;2024-02-23T02:41:07;98133.58;;;22.12;34.67
67501;BME280;54349;52.528;19.760;2024-02-23T02:43:36;98142.67;;;22.12;34.68
67501;BME280;54349;52.528;19.760;2024-02-23T02:46:08;98139.84;;;22.10;34.71
67501;BME280;54349;52.528;19.760;2024-02-23T02:48:38;98146.70;;;22.12;34.70
67501;BME280;54349;52.528;19.760;2024-02-23T02:51:06;98142.65;;;22.11;34.64
67501;BME280;54349;52.528;19.760;2024-02-23T02:53:36;98143.67;;;22.11;34.58
67501;BME280;54349;52.528;19.760;2024-02-23T02:56:08;98147.38;;;22.11;34.62
67501;BME280;54349;52.528;19.760;2024-02-23T02:58:37;98149.74;;;22.11;34.65
67501;BME280;54349;52.528;19.760;2024-02-23T03:01:08;98153.27;;;22.11;34.65
67501;BME280;54349;52.528;19.760;2024-02-23T03:03:37;98156.83;;;22.11;34.64
67501;BME280;54349;52.528;19.760;2024-02-23T03:06:05;98152.54;;;22.10;34.59
67501;BME280;54349;52.528;19.760;2024-02-23T03:08:38;98155.14;;;22.10;34.68
67501;BME280;54349;52.528;19.760;2024-02-23T03:11:06;98155.29;;;22.09;34.64
67501;BME280;54349;52.528;19.760;2024-02-23T03:13:36;98156.63;;;22.09;34.70
67501;BME280;54349;52.528;19.760;2024-02-23T03:16:05;98160.92;;;22.08;34.71
67501;BME280;54349;52.528;19.760;2024-02-23T03:18:40;98162.73;;;22.07;34.75
67501;BME280;54349;52.528;19.760;2024-02-23T03:21:08;98163.64;;;22.06;34.70
67501;BME280;54349;52.528;19.760;2024-02-23T03:23:38;98163.46;;;22.06;34.76
67501;BME280;54349;52.528;19.760;2024-02-23T03:26:07;98165.56;;;22.05;34.79
67501;BME280;54349;52.528;19.760;2024-02-23T03:28:38;98168.83;;;22.03;34.76
67501;BME280;54349;52.528;19.760;2024-02-23T03:31:06;98169.13;;;22.03;34.75
67501;BME280;54349;52.528;19.760;2024-02-23T03:33:43;98171.77;;;22.02;34.85
67501;BME280;54349;52.528;19.760;2024-02-23T03:36:12;98168.19;;;22.01;34.75
67501;BME280;54349;52.528;19.760;2024-02-23T03:38:42;98169.56;;;21.99;34.87
67501;BME280;54349;52.528;19.760;2024-02-23T03:41:10;98170.91;;;21.99;34.93
67501;BME280;54349;52.528;19.760;2024-02-23T03:43:41;98170.81;;;21.99;34.98
67501;BME280;54349;52.528;19.760;2024-02-23T03:46:10;98171.40;;;21.98;34.95
67501;BME280;54349;52.528;19.760;2024-02-23T03:48:41;98170.90;;;21.97;35.00
67501;BME280;54349;52.528;19.760;2024-02-23T03:51:09;98169.61;;;21.96;34.85
67501;BME280;54349;52.528;19.760;2024-02-23T03:53:41;98170.69;;;21.95;34.92
67501;BME280;54349;52.528;19.760;2024-02-23T03:56:09;98175.31;;;21.94;34.98
67501;BME280;54349;52.528;19.760;2024-02-23T03:58:40;98181.14;;;21.94;35.00
67501;BME280;54349;52.528;19.760;2024-02-23T04:01:14;98180.40;;;21.93;35.08
67501;BME280;54349;52.528;19.760;2024-02-23T04:03:44;98186.23;;;21.92;35.05
67501;BME280;54349;52.528;19.760;2024-02-23T04:06:13;98184.45;;;21.91;35.02
67501;BME280;54349;52.528;19.760;2024-02-23T04:08:45;98184.61;;;21.91;35.02
67501;BME280;54349;52.528;19.760;2024-02-23T04:11:18;98182.78;;;21.90;34.96
67501;BME280;54349;52.528;19.760;2024-02-23T04:13:48;98184.23;;;21.89;35.14
67501;BME280;54349;52.528;19.760;2024-02-23T04:16:23;98184.56;;;21.90;35.06
67501;BME280;54349;52.528;19.760;2024-02-23T04:18:53;98186.75;;;21.89;35.14
67501;BME280;54349;52.528;19.760;2024-02-23T04:21:22;98187.22;;;21.88;35.06
67501;BME280;54349;52.528;19.760;2024-02-23T04:23:57;98187.97;;;21.88;35.14
67501;BME280;54349;52.528;19.760;2024-02-23T04:26:28;98190.63;;;21.87;35.10
67501;BME280;54349;52.528;19.760;2024-02-23T04:29:03;98196.37;;;21.86;35.17
67501;BME280;54349;52.528;19.760;2024-02-23T04:31:32;98200.45;;;21.86;35.17
67501;BME280;54349;52.528;19.760;2024-02-23T04:34:07;98208.11;;;21.86;35.30
67501;BME280;54349;52.528;19.760;2024-02-23T04:36:47;98210.38;;;21.85;35.22
67501;BME280;54349;52.528;19.760;2024-02-23T04:39:22;98214.49;;;21.86;35.28
67501;BME280;54349;52.528;19.760;2024-02-23T04:41:50;98214.06;;;21.87;35.21
67501;BME280;54349;52.528;19.760;2024-02-23T04:44:28;98218.25;;;21.90;35.22
67501;BME280;54349;52.528;19.760;2024-02-23T04:46:56;98217.09;;;21.93;35.18
67501;BME280;54349;52.528;19.760;2024-02-23T04:49:26;98218.37;;;21.96;35.18
67501;BME280;54349;52.528;19.760;2024-02-23T04:51:54;98217.71;;;22.00;35.11
67501;BME280;54349;52.528;19.760;2024-02-23T04:54:24;98218.39;;;22.03;35.15
67501;BME280;54349;52.528;19.760;2024-02-23T04:56:52;98221.16;;;22.06;35.14
67501;BME280;54349;52.528;19.760;2024-02-23T04:59:22;98225.79;;;22.10;35.06
67501;BME280;54349;52.528;19.760;2024-02-23T05:01:50;98225.20;;;22.14;35.11
67501;BME280;54349;52.528;19.760;2024-02-23T05:04:20;98219.52;;;22.18;35.00
67501;BME280;54349;52.528;19.760;2024-02-23T05:06:48;98227.67;;;22.21;34.97
67501;BME280;54349;52.528;19.760;2024-02-23T05:09:19;98229.80;;;22.24;35.03
67501;BME280;54349;52.528;19.760;2024-02-23T05:11:48;98231.24;;;22.26;34.92
67501;BME280;54349;52.528;19.760;2024-02-23T05:14:18;98235.18;;;22.28;34.97
67501;BME280;54349;52.528;19.760;2024-02-23T05:16:46;98239.78;;;22.32;34.82
67501;BME280;54349;52.528;19.760;2024-02-23T05:19:17;98243.92;;;22.35;34.90
67501;BME280;54349;52.528;19.760;2024-02-23T05:21:45;98239.34;;;22.38;34.77
67501;BME280;54349;52.528;19.760;2024-02-23T05:24:15;98245.25;;;22.40;34.81
67501;BME280;54349;52.528;19.760;2024-02-23T05:26:43;98249.05;;;22.43;34.85
67501;BME280;54349;52.528;19.760;2024-02-23T05:29:14;98249.80;;;22.45;34.80
67501;BME280;54349;52.528;19.760;2024-02-23T05:31:51;98257.95;;;22.48;34.76
67501;BME280;54349;52.528;19.760;2024-02-23T05:34:20;98263.34;;;22.51;34.67
67501;BME280;54349;52.528;19.760;2024-02-23T05:36:50;98269.38;;;22.54;34.70
67501;BME280;54349;52.528;19.760;2024-02-23T05:39:20;98278.00;;;22.57;34.64
67501;BME280;54349;52.528;19.760;2024-02-23T05:41:49;98277.08;;;22.60;34.68
67501;BME280;54349;52.528;19.760;2024-02-23T05:44:18;98281.23;;;22.62;34.63
67501;BME280;54349;52.528;19.760;2024-02-23T05:46:47;98286.20;;;22.65;34.64
67501;BME280;54349;52.528;19.760;2024-02-23T05:49:15;98288.41;;;22.66;34.76
67501;BME280;54349;52.528;19.760;2024-02-23T05:51:46;98287.80;;;22.67;34.53
67501;BME280;54349;52.528;19.760;2024-02-23T05:54:14;98292.69;;;22.69;34.56
67501;BME280;54349;52.528;19.760;2024-02-23T05:56:45;98293.54;;;22.71;34.43
67501;BME280;54349;52.528;19.760;2024-02-23T05:59:13;98299.20;;;22.73;34.55
67501;BME280;54349;52.528;19.760;2024-02-23T06:01:44;98301.77;;;22.75;34.50
67501;BME280;54349;52.528;19.760;2024-02-23T06:04:12;98302.54;;;22.76;34.49
67501;BME280;54349;52.528;19.760;2024-02-23T06:06:42;98311.91;;;22.78;34.32
67501;BME280;54349;52.528;19.760;2024-02-23T06:09:14;98309.20;;;22.79;34.38
67501;BME280;54349;52.528;19.760;2024-02-23T06:11:43;98317.73;;;22.80;34.39
67501;BME280;54349;52.528;19.760;2024-02-23T06:14:12;98321.95;;;22.81;34.44
67501;BME280;54349;52.528;19.760;2024-02-23T06:16:43;98326.80;;;22.81;34.43
67501;BME280;54349;52.528;19.760;2024-02-23T06:19:11;98327.71;;;22.83;34.51
67501;BME280;54349;52.528;19.760;2024-02-23T06:21:42;98333.77;;;22.85;34.42
67501;BME280;54349;52.528;19.760;2024-02-23T06:24:10;98335.23;;;22.86;34.44
67501;BME280;54349;52.528;19.760;2024-02-23T06:26:40;98341.10;;;22.87;34.40
67501;BME280;54349;52.528;19.760;2024-02-23T06:29:08;98341.13;;;22.87;34.57
67501;BME280;54349;52.528;19.760;2024-02-23T06:31:41;98345.64;;;22.88;34.33
67501;BME280;54349;52.528;19.760;2024-02-23T06:34:09;98348.64;;;22.88;34.39
67501;BME280;54349;52.528;19.760;2024-02-23T06:36:39;98346.52;;;22.88;34.38
67501;BME280;54349;52.528;19.760;2024-02-23T06:39:11;98352.56;;;22.89;34.41
67501;BME280;54349;52.528;19.760;2024-02-23T06:41:41;98356.34;;;22.89;34.40
67501;BME280;54349;52.528;19.760;2024-02-23T06:44:12;98356.21;;;22.90;34.34
67501;BME280;54349;52.528;19.760;2024-02-23T06:46:42;98361.45;;;22.91;34.29
67501;BME280;54349;52.528;19.760;2024-02-23T06:49:13;98371.59;;;22.91;34.41
67501;BME280;54349;52.528;19.760;2024-02-23T06:51:42;98374.31;;;22.92;34.37
67501;BME280;54349;52.528;19.760;2024-02-23T06:54:10;98374.21;;;22.92;34.39
67501;BME280;54349;52.528;19.760;2024-02-23T06:56:39;98377.55;;;22.93;34.29
67501;BME280;54349;52.528;19.760;2024-02-23T06:59:08;98385.20;;;22.94;34.35
67501;BME280;54349;52.528;19.760;2024-02-23T07:01:48;98386.32;;;22.96;34.26
67501;BME280;54349;52.528;19.760;2024-02-23T07:04:19;98390.89;;;22.98;34.41
67501;BME280;54349;52.528;19.760;2024-02-23T07:06:48;98397.56;;;23.00;34.37
67501;BME280;54349;52.528;19.760;2024-02-23T07:09:18;98403.19;;;23.00;34.26
67501;BME280;54349;52.528;19.760;2024-02-23T07:11:48;98408.59;;;23.01;34.32
67501;BME280;54349;52.528;19.760;2024-02-23T07:14:18;98411.05;;;23.01;34.39
67501;BME280;54349;52.528;19.760;2024-02-23T07:16:53;98411.31;;;23.01;34.31
67501;BME280;54349;52.528;19.760;2024-02-23T07:19:23;98420.26;;;23.02;34.27
67501;BME280;54349;52.528;19.760;2024-02-23T07:21:52;98427.45;;;23.02;34.75
67501;BME280;54349;52.528;19.760;2024-02-23T07:24:23;98426.02;;;23.02;35.39
67501;BME280;54349;52.528;19.760;2024-02-23T07:26:51;98429.81;;;23.02;35.58
67501;BME280;54349;52.528;19.760;2024-02-23T07:29:23;98430.40;;;23.03;35.43
67501;BME280;54349;52.528;19.760;2024-02-23T07:31:52;98437.77;;;23.04;35.45
67501;BME280;54349;52.528;19.760;2024-02-23T07:34:23;98439.77;;;23.01;35.43
67501;BME280;54349;52.528;19.760;2024-02-23T07:36:52;98444.58;;;23.04;35.29
67501;BME280;54349;52.528;19.760;2024-02-23T07:39:23;98448.02;;;23.05;35.22
67501;BME280;54349;52.528;19.760;2024-02-23T07:41:52;98446.09;;;23.07;35.21
67501;BME280;54349;52.528;19.760;2024-02-23T07:44:22;98446.39;;;23.08;35.17
67501;BME280;54349;52.528;19.760;2024-02-23T07:46:51;98446.41;;;23.10;35.16
67501;BME280;54349;52.528;19.760;2024-02-23T07:49:25;98454.54;;;23.11;35.08
67501;BME280;54349;52.528;19.760;2024-02-23T07:51:56;98461.32;;;23.13;34.88
67501;BME280;54349;52.528;19.760;2024-02-23T07:54:28;98464.76;;;23.14;34.91
67501;BME280;54349;52.528;19.760;2024-02-23T07:56:56;98474.36;;;23.16;35.00
67501;BME280;54349;52.528;19.760;2024-02-23T07:59:27;98478.38;;;23.18;34.89
67501;BME280;54349;52.528;19.760;2024-02-23T08:01:56;98477.29;;;23.18;34.85
67501;BME280;54349;52.528;19.760;2024-02-23T08:04:26;98481.27;;;23.19;34.81
67501;BME280;54349;52.528;19.760;2024-02-23T08:06:54;98493.18;;;23.21;34.69
67501;BME280;54349;52.528;19.760;2024-02-23T08:09:24;98491.86;;;23.21;34.76
67501;BME280;54349;52.528;19.760;2024-02-23T08:11:52;98489.33;;;23.21;34.65
67501;BME280;54349;52.528;19.760;2024-02-23T08:14:22;98492.25;;;23.21;34.66
67501;BME280;54349;52.528;19.760;2024-02-23T08:16:51;98503.48;;;23.21;34.59
67501;BME280;54349;52.528;19.760;2024-02-23T08:19:21;98502.05;;;23.21;34.65
67501;BME280;54349;52.528;19.760;2024-02-23T08:21:50;98501.10;;;23.21;34.66
67501;BME280;54349;52.528;19.760;2024-02-23T08:24:20;98503.85;;;23.20;34.65
67501;BME280;54349;52.528;19.760;2024-02-23T08:26:49;98514.19;;;23.20;34.67
67501;BME280;54349;52.528;19.760;2024-02-23T08:29:19;98512.85;;;23.20;34.55
67501;BME280;54349;52.528;19.760;2024-02-23T08:31:48;98515.75;;;23.19;34.64
67501;BME280;54349;52.528;19.760;2024-02-23T08:34:19;98521.30;;;23.19;34.54
67501;BME280;54349;52.528;19.760;2024-02-23T08:36:47;98526.89;;;23.19;34.54
67501;BME280;54349;52.528;19.760;2024-02-23T08:39:16;98529.02;;;23.19;34.61
67501;BME280;54349;52.528;19.760;2024-02-23T08:41:44;98529.55;;;23.18;34.56
67501;BME280;54349;52.528;19.760;2024-02-23T08:44:15;98537.36;;;23.18;34.51
67501;BME280;54349;52.528;19.760;2024-02-23T08:46:43;98540.42;;;23.17;34.65
67501;BME280;54349;52.528;19.760;2024-02-23T08:49:13;98540.09;;;23.16;34.53
67501;BME280;54349;52.528;19.760;2024-02-23T08:51:42;98544.43;;;23.16;34.65
67501;BME280;54349;52.528;19.760;2024-02-23T08:54:12;98553.41;;;23.15;34.69
67501;BME280;54349;52.528;19.760;2024-02-23T08:56:40;98557.27;;;23.15;34.56
67501;BME280;54349;52.528;19.760;2024-02-23T08:59:12;98558.51;;;23.14;34.59
67501;BME280;54349;52.528;19.760;2024-02-23T09:01:40;98562.45;;;23.14;34.62
67501;BME280;54349;52.528;19.760;2024-02-23T09:04:10;98563.76;;;23.13;34.55
67501;BME280;54349;52.528;19.760;2024-02-23T09:06:38;98566.75;;;23.12;34.54
67501;BME280;54349;52.528;19.760;2024-02-23T09:09:09;98572.81;;;23.12;34.66
67501;BME280;54349;52.528;19.760;2024-02-23T09:11:37;98577.80;;;23.12;34.58
67501;BME280;54349;52.528;19.760;2024-02-23T09:14:07;98583.42;;;23.12;34.59
67501;BME280;54349;52.528;19.760;2024-02-23T09:16:37;98581.05;;;23.12;34.68
67501;BME280;54349;52.528;19.760;2024-02-23T09:19:06;98584.90;;;23.12;34.60
67501;BME280;54349;52.528;19.760;2024-02-23T09:21:34;98587.83;;;23.12;34.61
67501;BME280;54349;52.528;19.760;2024-02-23T09:24:03;98588.79;;;23.12;34.54
67501;BME280;54349;52.528;19.760;2024-02-23T09:26:33;98586.48;;;23.11;34.55
67501;BME280;54349;52.528;19.760;2024-02-23T09:29:01;98592.08;;;23.11;34.47
67501;BME280;54349;52.528;19.760;2024-02-23T09:31:32;98598.97;;;23.11;34.62
67501;BME280;54349;52.528;19.760;2024-02-23T09:34:00;98603.08;;;23.11;34.66
67501;BME280;54349;52.528;19.760;2024-02-23T09:36:30;98605.20;;;23.11;34.68
67501;BME280;54349;52.528;19.760;2024-02-23T09:38:58;98608.39;;;23.11;34.72
67501;BME280;54349;52.528;19.760;2024-02-23T09:41:28;98609.69;;;23.10;35.29
67501;BME280;54349;52.528;19.760;2024-02-23T09:44:01;98617.37;;;23.11;36.13
67501;BME280;54349;52.528;19.760;2024-02-23T09:46:31;98625.28;;;23.11;36.61
67501;BME280;54349;52.528;19.760;2024-02-23T09:49:02;98631.94;;;23.12;37.09
67501;BME280;54349;52.528;19.760;2024-02-23T09:51:33;98633.14;;;23.12;37.41
67501;BME280;54349;52.528;19.760;2024-02-23T09:54:02;98640.40;;;23.12;37.57
67501;BME280;54349;52.528;19.760;2024-02-23T09:56:32;98642.45;;;23.12;37.89
67501;BME280;54349;52.528;19.760;2024-02-23T09:59:03;98648.92;;;23.11;38.13
67501;BME280;54349;52.528;19.760;2024-02-23T10:01:32;98647.21;;;23.12;38.27
67501;BME280;54349;52.528;19.760;2024-02-23T10:04:01;98655.73;;;23.12;38.32
67501;BME280;54349;52.528;19.760;2024-02-23T10:06:34;98657.75;;;23.13;38.63
67501;BME280;54349;52.528;19.760;2024-02-23T10:09:03;98663.36;;;23.13;38.62
67501;BME280;54349;52.528;19.760;2024-02-23T10:11:35;98668.02;;;23.14;38.75
67501;BME280;54349;52.528;19.760;2024-02-23T10:14:04;98671.36;;;23.15;38.62
67501;BME280;54349;52.528;19.760;2024-02-23T10:16:34;98670.00;;;23.15;38.59
67501;BME280;54349;52.528;19.760;2024-02-23T10:19:02;98668.23;;;23.16;38.67
67501;BME280;54349;52.528;19.760;2024-02-23T10:21:32;98672.90;;;23.16;38.62
67501;BME280;54349;52.528;19.760;2024-02-23T10:24:00;98671.62;;;23.18;38.68
67501;BME280;54349;52.528;19.760;2024-02-23T10:26:31;98675.80;;;23.20;38.75
67501;BME280;54349;52.528;19.760;2024-02-23T10:29:00;98682.09;;;23.21;38.71
67501;BME280;54349;52.528;19.760;2024-02-23T10:31:35;98685.48;;;23.23;38.71
67501;BME280;54349;52.528;19.760;2024-02-23T10:34:09;98691.06;;;23.24;38.62
67501;BME280;54349;52.528;19.760;2024-02-23T10:36:45;98691.69;;;23.26;38.78
67501;BME280;54349;52.528;19.760;2024-02-23T10:39:17;98692.85;;;23.30;38.57
67501;BME280;54349;52.528;19.760;2024-02-23T10:41:56;98696.11;;;23.36;38.64
67501;BME280;54349;52.528;19.760;2024-02-23T10:44:28;98698.58;;;23.40;38.74
67501;BME280;54349;52.528;19.760;2024-02-23T10:46:58;98703.31;;;23.45;38.63
67501;BME280;54349;52.528;19.760;2024-02-23T10:49:33;98707.11;;;23.49;38.44
67501;BME280;54349;52.528;19.760;2024-02-23T10:52:02;98706.54;;;23.53;38.52
67501;BME280;54349;52.528;19.760;2024-02-23T10:54:33;98710.11;;;23.58;38.46
67501;BME280;54349;52.528;19.760;2024-02-23T10:57:01;98714.90;;;23.62;38.42
67501;BME280;54349;52.528;19.760;2024-02-23T10:59:32;98718.38;;;23.66;38.27
67501;BME280;54349;52.528;19.760;2024-02-23T11:02:01;98720.38;;;23.69;38.42
67501;BME280;54349;52.528;19.760;2024-02-23T11:04:33;98722.97;;;23.72;38.42
67501;BME280;54349;52.528;19.760;2024-02-23T11:07:03;98729.08;;;23.76;38.35
67501;BME280;54349;52.528;19.760;2024-02-23T11:09:37;98730.05;;;23.79;38.26
67501;BME280;54349;52.528;19.760;2024-02-23T11:12:06;98737.73;;;23.81;38.19
67501;BME280;54349;52.528;19.760;2024-02-23T11:14:37;98741.39;;;23.84;38.04
67501;BME280;54349;52.528;19.760;2024-02-23T11:17:06;98741.91;;;23.85;37.92
67501;BME280;54349;52.528;19.760;2024-02-23T11:19:39;98747.20;;;23.87;37.95
67501;BME280;54349;52.528;19.760;2024-02-23T11:22:11;98752.63;;;23.88;37.95
67501;BME280;54349;52.528;19.760;2024-02-23T11:24:53;98757.09;;;23.89;37.76
67501;BME280;54349;52.528;19.760;2024-02-23T11:27:24;98762.61;;;23.91;37.84
67501;BME280;54349;52.528;19.760;2024-02-23T11:30:05;98767.48;;;23.92;37.78
67501;BME280;54349;52.528;19.760;2024-02-23T11:32:40;98771.68;;;23.95;37.74
67501;BME280;54349;52.528;19.760;2024-02-23T11:35:12;98776.21;;;23.98;37.80
67501;BME280;54349;52.528;19.760;2024-02-23T11:37:54;98778.02;;;24.00;37.94
67501;BME280;54349;52.528;19.760;2024-02-23T11:40:32;98775.72;;;24.02;37.78
67501;BME280;54349;52.528;19.760;2024-02-23T11:43:01;98779.70;;;24.03;37.71
67501;BME280;54349;52.528;19.760;2024-02-23T11:45:30;98784.32;;;24.04;37.68
67501;BME280;54349;52.528;19.760;2024-02-23T11:48:00;98785.88;;;24.05;37.87
67501;BME280;54349;52.528;19.760;2024-02-23T11:50:30;98786.31;;;24.06;37.80
67501;BME280;54349;52.528;19.760;2024-02-23T11:52:59;98790.64;;;24.08;37.84
67501;BME280;54349;52.528;19.760;2024-02-23T11:55:30;98795.44;;;24.09;37.87
67501;BME280;54349;52.528;19.760;2024-02-23T11:57:59;98792.73;;;24.10;37.80
67501;BME280;54349;52.528;19.760;2024-02-23T12:00:36;98792.51;;;24.11;37.70
67501;BME280;54349;52.528;19.760;2024-02-23T12:03:05;98799.71;;;24.11;37.69
67501;BME280;54349;52.528;19.760;2024-02-23T12:05:36;98800.07;;;24.12;37.87
67501;BME280;54349;52.528;19.760;2024-02-23T12:08:05;98800.98;;;24.13;37.75
67501;BME280;54349;52.528;19.760;2024-02-23T12:10:34;98803.70;;;24.14;37.94
67501;BME280;54349;52.528;19.760;2024-02-23T12:13:04;98807.09;;;24.16;37.75
67501;BME280;54349;52.528;19.760;2024-02-23T12:15:33;98806.84;;;24.18;37.79
67501;BME280;54349;52.528;19.760;2024-02-23T12:18:03;98814.81;;;24.20;37.72
67501;BME280;54349;52.528;19.760;2024-02-23T12:20:33;98816.48;;;24.21;37.61
67501;BME280;54349;52.528;19.760;2024-02-23T12:23:02;98816.02;;;24.21;37.43
67501;BME280;54349;52.528;19.760;2024-02-23T12:25:33;98817.48;;;24.22;37.54
67501;BME280;54349;52.528;19.760;2024-02-23T12:28:01;98818.33;;;24.23;37.40
67501;BME280;54349;52.528;19.760;2024-02-23T12:30:32;98817.85;;;24.24;37.49
67501;BME280;54349;52.528;19.760;2024-02-23T12:33:05;98822.64;;;24.25;37.41
67501;BME280;54349;52.528;19.760;2024-02-23T12:35:37;98826.81;;;24.26;37.52
67501;BME280;54349;52.528;19.760;2024-02-23T12:38:05;98825.32;;;24.27;37.61
67501;BME280;54349;52.528;19.760;2024-02-23T12:40:35;98820.52;;;24.28;37.40
67501;BME280;54349;52.528;19.760;2024-02-23T12:43:04;98822.01;;;24.29;37.29
67501;BME280;54349;52.528;19.760;2024-02-23T12:45:33;98821.65;;;24.28;37.41
67501;BME280;54349;52.528;19.760;2024-02-23T12:48:01;98825.23;;;24.29;37.25
67501;BME280;54349;52.528;19.760;2024-02-23T12:50:32;98828.49;;;24.29;37.45
67501;BME280;54349;52.528;19.760;2024-02-23T12:53:00;98830.96;;;24.30;37.53
67501;BME280;54349;52.528;19.760;2024-02-23T12:55:33;98832.70;;;24.29;37.50
67501;BME280;54349;52.528;19.760;2024-02-23T12:58:02;98838.17;;;24.30;37.40
67501;BME280;54349;52.528;19.760;2024-02-23T13:00:32;98839.92;;;24.30;37.46
67501;BME280;54349;52.528;19.760;2024-02-23T13:03:00;98843.40;;;24.32;37.40
67501;BME280;54349;52.528;19.760;2024-02-23T13:05:29;98847.72;;;24.31;37.35
67501;BME280;54349;52.528;19.760;2024-02-23T13:07:58;98854.13;;;24.31;37.34